Time;durP1;ratioP1;P1;durP2;ratioP2;P2;SDS_P1;SDS_P2;PMS_P1;PMS_P2;Temp;Humidity;BMP_temperature;BMP_pressure;BME280_temperature;BME280_humidity;BME280_pressure;Samples;Min_cycle;Max_cycle;Signal;HPM_P1;HPM_P2
2023/11/23 00:02:03;;;;;;;18.52;7.18;;;;;;;;;;5068363;28;20049;-61
2023/11/23 00:04:30;;;;;;;26.23;9.45;;;;;;;;;;5069853;28;20048;-60
2023/11/23 00:06:57;;;;;;;23.48;9.57;;;;;;;;;;5054792;28;20053;-60
2023/11/23 00:09:25;;;;;;;23.80;11.07;;;;;;;;;;5039562;28;20102;-62
2023/11/23 00:11:52;;;;;;;18.35;7.85;;;;;;;;;;5046430;28;20053;-61
2023/11/23 00:14:19;;;;;;;20.58;7.72;;;;;;;;;;5021516;28;20152;-58
2023/11/23 00:16:46;;;;;;;20.88;9.07;;;;;;;;;;5022239;28;20041;-62
2023/11/23 00:19:15;;;;;;;24.27;7.43;;;;;;;;;;5035035;28;20057;-61
2023/11/23 00:21:42;;;;;;;21.63;7.65;;;;;;;;;;5028032;28;20081;-63
2023/11/23 00:24:09;;;;;;;17.00;7.97;;;;;;;;;;5042328;28;20124;-62
2023/11/23 00:26:35;;;;;;;21.50;8.43;;;;;;;;;;5042940;28;20498;-60
2023/11/23 00:29:05;;;;;;;22.80;8.38;;;;;;;;;;5056019;28;20119;-61
2023/11/23 00:31:31;;;;;;;17.85;7.47;;;;;;;;;;4991154;28;20056;-62
2023/11/23 00:33:58;;;;;;;18.70;8.48;;;;;;;;;;5035636;28;20045;-60
2023/11/23 00:36:24;;;;;;;15.48;6.90;;;;;;;;;;5041723;28;20049;-62
2023/11/23 00:38:51;;;;;;;17.88;7.65;;;;;;;;;;5044138;28;20098;-62
2023/11/23 00:41:18;;;;;;;18.50;8.18;;;;;;;;;;5021067;28;20049;-61
2023/11/23 00:43:44;;;;;;;18.55;7.88;;;;;;;;;;5048230;28;20180;-62
2023/11/23 00:46:13;;;;;;;24.65;8.65;;;;;;;;;;5039787;28;20037;-60
2023/11/23 00:48:40;;;;;;;24.48;8.05;;;;;;;;;;5041234;28;20111;-60
2023/11/23 00:51:07;;;;;;;21.35;8.90;;;;;;;;;;5026282;28;20061;-62
2023/11/23 00:53:33;;;;;;;19.73;8.25;;;;;;;;;;5016501;28;20111;-60
2023/11/23 00:56:01;;;;;;;21.55;9.30;;;;;;;;;;5019346;28;20049;-61
2023/11/23 00:58:27;;;;;;;22.20;9.45;;;;;;;;;;5023251;28;20120;-64
2023/11/23 01:00:54;;;;;;;18.95;8.40;;;;;;;;;;5018478;28;20053;-62
2023/11/23 01:03:24;;;;;;;21.30;9.50;;;;;;;;;;5013988;28;20076;-62
2023/11/23 01:05:50;;;;;;;18.42;7.57;;;;;;;;;;5021905;28;20049;-60
2023/11/23 01:08:17;;;;;;;18.52;7.70;;;;;;;;;;5020189;28;20053;-62
2023/11/23 01:10:44;;;;;;;18.67;7.90;;;;;;;;;;5012951;28;20084;-62
2023/11/23 01:13:11;;;;;;;24.38;8.73;;;;;;;;;;5032073;28;20122;-61
2023/11/23 01:15:38;;;;;;;19.98;7.95;;;;;;;;;;5040190;28;20056;-63
2023/11/23 01:18:05;;;;;;;20.10;8.25;;;;;;;;;;5041247;28;20045;-62
2023/11/23 01:20:33;;;;;;;20.55;8.25;;;;;;;;;;5044985;28;20121;-61
2023/11/23 01:23:00;;;;;;;20.45;7.93;;;;;;;;;;5037267;28;20053;-61
2023/11/23 01:25:28;;;;;;;19.70;7.28;;;;;;;;;;5032147;28;20899;-60
2023/11/23 01:27:55;;;;;;;21.40;8.75;;;;;;;;;;5023161;28;20060;-64
2023/11/23 01:30:21;;;;;;;16.73;7.22;;;;;;;;;;5026263;28;20140;-64
2023/11/23 01:32:48;;;;;;;15.85;7.25;;;;;;;;;;5033687;28;20049;-62
2023/11/23 01:35:15;;;;;;;18.38;8.57;;;;;;;;;;5013270;28;20082;-59
2023/11/23 01:37:43;;;;;;;17.83;7.35;;;;;;;;;;5020035;28;20081;-62
2023/11/23 01:40:11;;;;;;;20.42;7.53;;;;;;;;;;5020544;28;20057;-61
2023/11/23 01:42:40;;;;;;;22.98;8.02;;;;;;;;;;5019324;28;20071;-63
2023/11/23 01:45:07;;;;;;;;;;;;;;;;;;5021677;28;20077;-60
2023/11/23 01:47:38;;;;;;;15.00;6.40;;;;;;;;;;5019717;28;19921;-61
2023/11/23 01:50:05;;;;;;;19.83;7.85;;;;;;;;;;5020989;28;20049;-59
2023/11/23 01:52:32;;;;;;;16.73;7.78;;;;;;;;;;5023147;28;20045;-61
2023/11/23 01:55:03;;;;;;;17.40;8.05;;;;;;;;;;5019825;28;20053;-61
2023/11/23 01:57:34;;;;;;;21.13;7.53;;;;;;;;;;5020287;28;21660;-61
2023/11/23 02:00:02;;;;;;;19.17;6.05;;;;;;;;;;5022768;28;20053;-60
2023/11/23 02:02:30;;;;;;;20.67;7.38;;;;;;;;;;5023587;28;20107;-62
2023/11/23 02:04:59;;;;;;;18.13;6.67;;;;;;;;;;5023286;28;20115;-62
2023/11/23 02:07:26;;;;;;;14.90;6.63;;;;;;;;;;5013616;28;20334;-61
2023/11/23 02:09:53;;;;;;;16.42;6.80;;;;;;;;;;5024217;28;20109;-63
2023/11/23 02:12:22;;;;;;;16.88;7.65;;;;;;;;;;5002150;28;20099;-61
2023/11/23 02:14:54;;;;;;;16.50;7.20;;;;;;;;;;5020310;28;20136;-62
2023/11/23 02:17:21;;;;;;;17.55;7.75;;;;;;;;;;5013932;28;20164;-62
2023/11/23 02:19:49;;;;;;;21.20;7.35;;;;;;;;;;5020629;28;20061;-61
2023/11/23 02:22:17;;;;;;;16.83;6.68;;;;;;;;;;5022135;28;20300;-61
2023/11/23 02:24:45;;;;;;;14.23;6.47;;;;;;;;;;5020832;28;20053;-61
2023/11/23 02:27:12;;;;;;;17.48;7.53;;;;;;;;;;5009413;28;20279;-63
2023/11/23 02:29:39;;;;;;;14.02;5.85;;;;;;;;;;5020803;28;20049;-60
2023/11/23 02:32:07;;;;;;;18.02;7.45;;;;;;;;;;5014663;28;20057;-63
2023/11/23 02:34:34;;;;;;;19.85;7.85;;;;;;;;;;5036948;28;20053;-64
2023/11/23 02:37:01;;;;;;;18.05;7.63;;;;;;;;;;5018300;28;20067;-62
2023/11/23 02:39:28;;;;;;;19.20;7.50;;;;;;;;;;5015603;28;20081;-63
2023/11/23 02:41:57;;;;;;;22.70;7.65;;;;;;;;;;5017126;28;20132;-63
2023/11/23 02:44:24;;;;;;;17.65;7.68;;;;;;;;;;5019767;28;20049;-61
2023/11/23 02:46:50;;;;;;;16.58;6.63;;;;;;;;;;5020432;28;20103;-61
2023/11/23 02:49:18;;;;;;;17.42;7.18;;;;;;;;;;5018347;28;20160;-62
2023/11/23 02:51:45;;;;;;;15.93;6.68;;;;;;;;;;5018044;28;20052;-60
2023/11/23 02:54:11;;;;;;;15.50;6.25;;;;;;;;;;5020898;28;20077;-63
2023/11/23 02:56:38;;;;;;;18.27;7.57;;;;;;;;;;5018059;28;20049;-63
2023/11/23 02:59:07;;;;;;;16.65;6.82;;;;;;;;;;5016930;28;20077;-62
2023/11/23 03:01:34;;;;;;;14.10;7.07;;;;;;;;;;5010896;28;20107;-63
2023/11/23 03:04:04;;;;;;;19.05;7.13;;;;;;;;;;5005017;28;20128;-61
2023/11/23 03:06:31;;;;;;;13.48;5.97;;;;;;;;;;5020204;28;20065;-60
2023/11/23 03:08:57;;;;;;;14.95;7.30;;;;;;;;;;5018464;28;20081;-62
2023/11/23 03:11:26;;;;;;;14.93;6.57;;;;;;;;;;5020094;28;20058;-61
2023/11/23 03:13:53;;;;;;;16.75;6.75;;;;;;;;;;5018003;28;20068;-62
2023/11/23 03:16:21;;;;;;;19.95;7.93;;;;;;;;;;5034214;28;20056;-59
2023/11/23 03:18:48;;;;;;;18.20;7.35;;;;;;;;;;5027429;28;20057;-62
2023/11/23 03:21:15;;;;;;;15.05;6.07;;;;;;;;;;5037871;28;20053;-62
2023/11/23 03:23:42;;;;;;;14.85;6.68;;;;;;;;;;5033379;28;20061;-61
2023/11/23 03:26:09;;;;;;;15.07;6.45;;;;;;;;;;5018168;28;20124;-58
2023/11/23 03:28:36;;;;;;;16.00;6.30;;;;;;;;;;5018220;28;20083;-62
2023/11/23 03:31:02;;;;;;;13.55;6.28;;;;;;;;;;5019994;28;20104;-62
2023/11/23 03:33:30;;;;;;;14.23;6.10;;;;;;;;;;5014126;28;20131;-62
2023/11/23 03:35:57;;;;;;;15.00;6.28;;;;;;;;;;5016290;28;20045;-64
2023/11/23 03:38:24;;;;;;;18.85;6.57;;;;;;;;;;5015539;28;22458;-65
2023/11/23 03:40:50;;;;;;;13.95;6.53;;;;;;;;;;5019167;28;20053;-64
2023/11/23 03:43:17;;;;;;;15.00;6.45;;;;;;;;;;5023988;28;20050;-63
2023/11/23 03:45:44;;;;;;;12.32;5.47;;;;;;;;;;5021543;28;20084;-60
2023/11/23 03:48:10;;;;;;;14.15;6.00;;;;;;;;;;5015211;28;20141;-60
2023/11/23 03:50:38;;;;;;;16.35;6.00;;;;;;;;;;5019145;28;20061;-60
2023/11/23 03:53:05;;;;;;;18.25;6.07;;;;;;;;;;5028278;28;20694;-60
2023/11/23 03:55:32;;;;;;;14.80;5.82;;;;;;;;;;5019890;28;20060;-59
2023/11/23 03:58:00;;;;;;;11.32;5.03;;;;;;;;;;5021186;28;20084;-59
2023/11/23 04:00:27;;;;;;;;;;;;;;;;;;5022260;28;20057;-61
2023/11/23 04:02:55;;;;;;;11.65;5.63;;;;;;;;;;5039377;28;19958;-59
2023/11/23 04:05:23;;;;;;;16.08;5.75;;;;;;;;;;5016307;28;20045;-59
2023/11/23 04:07:51;;;;;;;13.02;5.30;;;;;;;;;;5023842;28;20057;-60
2023/11/23 04:10:17;;;;;;;12.55;5.47;;;;;;;;;;5022803;28;20053;-59
2023/11/23 04:12:44;;;;;;;14.82;4.40;;;;;;;;;;5024367;28;20088;-62
2023/11/23 04:15:12;;;;;;;11.77;4.47;;;;;;;;;;5032065;28;20103;-62
2023/11/23 04:17:39;;;;;;;15.80;4.68;;;;;;;;;;5043155;28;20053;-62
2023/11/23 04:20:07;;;;;;;15.38;5.32;;;;;;;;;;5034523;28;20144;-64
2023/11/23 04:22:33;;;;;;;11.00;4.82;;;;;;;;;;5044515;28;20053;-65
2023/11/23 04:25:04;;;;;;;7.53;3.80;;;;;;;;;;5028820;28;20380;-64
2023/11/23 04:27:33;;;;;;;12.70;4.18;;;;;;;;;;5038694;28;20045;-62
2023/11/23 04:30:00;;;;;;;11.98;4.30;;;;;;;;;;5019325;28;20117;-61
2023/11/23 04:32:27;;;;;;;8.90;3.63;;;;;;;;;;5021488;28;20057;-63
2023/11/23 04:34:53;;;;;;;9.80;4.25;;;;;;;;;;5043644;28;20076;-64
2023/11/23 04:37:23;;;;;;;10.77;4.03;;;;;;;;;;5041912;28;20071;-61
2023/11/23 04:39:50;;;;;;;13.70;4.03;;;;;;;;;;5041876;28;20053;-60
2023/11/23 04:42:19;;;;;;;9.75;3.58;;;;;;;;;;5041973;28;20235;-59
2023/11/23 04:44:45;;;;;;;8.20;3.53;;;;;;;;;;5026630;28;20096;-61
2023/11/23 04:47:12;;;;;;;8.77;3.85;;;;;;;;;;5022209;28;20082;-62
2023/11/23 04:49:39;;;;;;;13.10;3.10;;;;;;;;;;5022858;28;20084;-61
2023/11/23 04:52:06;;;;;;;7.85;3.63;;;;;;;;;;5019509;28;20045;-62
2023/11/23 04:54:33;;;;;;;7.97;3.30;;;;;;;;;;5018194;28;20049;-56
2023/11/23 04:56:59;;;;;;;9.30;3.85;;;;;;;;;;5017999;28;20053;-59
2023/11/23 04:59:27;;;;;;;10.65;3.92;;;;;;;;;;5022500;28;20099;-59
2023/11/23 05:01:54;;;;;;;14.80;4.45;;;;;;;;;;5025529;28;20137;-62
2023/11/23 05:04:22;;;;;;;9.77;3.35;;;;;;;;;;5008041;28;20054;-63
2023/11/23 05:06:48;;;;;;;10.05;3.65;;;;;;;;;;5022205;28;20155;-59
2023/11/23 05:09:15;;;;;;;9.40;3.53;;;;;;;;;;5022091;28;20115;-62
2023/11/23 05:11:41;;;;;;;9.65;3.63;;;;;;;;;;5021381;28;20053;-60
2023/11/23 05:14:08;;;;;;;9.40;3.67;;;;;;;;;;5008975;28;20123;-61
2023/11/23 05:16:36;;;;;;;11.30;3.30;;;;;;;;;;5021679;28;20058;-60
2023/11/23 05:19:04;;;;;;;7.35;3.22;;;;;;;;;;5015703;28;20145;-62
2023/11/23 05:21:30;;;;;;;9.80;3.30;;;;;;;;;;5021520;28;20069;-60
2023/11/23 05:23:58;;;;;;;7.80;2.78;;;;;;;;;;5025817;28;20077;-60
2023/11/23 05:26:25;;;;;;;7.68;2.88;;;;;;;;;;5036909;28;20429;-59
2023/11/23 05:28:52;;;;;;;8.00;3.33;;;;;;;;;;5037536;28;20112;-59
2023/11/23 05:31:20;;;;;;;9.98;2.97;;;;;;;;;;5021816;28;20084;-63
2023/11/23 05:33:48;;;;;;;7.00;3.50;;;;;;;;;;5021374;28;20144;-60
2023/11/23 05:36:15;;;;;;;10.05;3.83;;;;;;;;;;5007987;28;20073;-60
2023/11/23 05:38:41;;;;;;;13.93;4.97;;;;;;;;;;5022923;28;20141;-60
2023/11/23 05:41:08;;;;;;;11.40;4.90;;;;;;;;;;5024790;28;20148;-62
2023/11/23 05:43:34;;;;;;;7.63;3.25;;;;;;;;;;5009235;28;20080;-63
2023/11/23 05:46:01;;;;;;;11.68;3.60;;;;;;;;;;5031592;28;20191;-62
2023/11/23 05:48:28;;;;;;;11.13;3.50;;;;;;;;;;5056054;28;20096;-62
2023/11/23 05:50:56;;;;;;;8.50;3.58;;;;;;;;;;5036978;28;20083;-60
2023/11/23 05:53:23;;;;;;;10.07;3.20;;;;;;;;;;5032972;28;20103;-61
2023/11/23 05:55:49;;;;;;;8.57;3.15;;;;;;;;;;5032519;28;20057;-63
2023/11/23 05:58:16;;;;;;;6.60;2.67;;;;;;;;;;5028512;28;20052;-64
2023/11/23 06:00:43;;;;;;;10.80;3.28;;;;;;;;;;5033818;28;20067;-63
2023/11/23 06:03:09;;;;;;;14.93;3.88;;;;;;;;;;5034556;28;20073;-63
2023/11/23 06:05:36;;;;;;;9.52;3.75;;;;;;;;;;5036480;28;20076;-63
2023/11/23 06:08:05;;;;;;;7.53;3.25;;;;;;;;;;5037992;28;20048;-61
2023/11/23 06:10:34;;;;;;;7.38;3.03;;;;;;;;;;5049548;28;20163;-61
2023/11/23 06:13:01;;;;;;;11.35;4.13;;;;;;;;;;5043029;28;20053;-60
2023/11/23 06:15:27;;;;;;;16.42;6.45;;;;;;;;;;5031104;28;20084;-61
2023/11/23 06:17:54;;;;;;;14.38;3.85;;;;;;;;;;5023288;28;20081;-60
2023/11/23 06:20:24;;;;;;;13.68;4.40;;;;;;;;;;5019965;28;20049;-60
2023/11/23 06:22:50;;;;;;;11.20;4.30;;;;;;;;;;5024954;28;20049;-59
2023/11/23 06:25:18;;;;;;;11.68;4.82;;;;;;;;;;5016180;28;20192;-60
2023/11/23 06:27:46;;;;;;;15.02;4.95;;;;;;;;;;5019703;28;20115;-63
2023/11/23 06:30:14;;;;;;;16.67;5.97;;;;;;;;;;5010764;28;20076;-62
2023/11/23 06:32:41;;;;;;;14.13;5.47;;;;;;;;;;5019781;28;20145;-63
2023/11/23 06:35:08;;;;;;;16.95;6.75;;;;;;;;;;5024123;28;20053;-63
2023/11/23 06:37:35;;;;;;;14.48;4.55;;;;;;;;;;5020886;28;20116;-60
2023/11/23 06:40:02;;;;;;;13.10;5.13;;;;;;;;;;5012566;28;20049;-63
2023/11/23 06:42:31;;;;;;;11.80;5.00;;;;;;;;;;5021484;28;20073;-62
2023/11/23 06:44:58;;;;;;;10.63;4.80;;;;;;;;;;5017224;28;20134;-60
2023/11/23 06:47:25;;;;;;;14.13;5.13;;;;;;;;;;5020441;28;20060;-60
2023/11/23 06:49:52;;;;;;;16.63;5.80;;;;;;;;;;5023491;28;20053;-59
2023/11/23 06:52:20;;;;;;;11.90;5.40;;;;;;;;;;5020001;28;20150;-64
2023/11/23 06:54:48;;;;;;;12.48;4.97;;;;;;;;;;5014553;28;20079;-61
2023/11/23 06:57:15;;;;;;;10.23;4.67;;;;;;;;;;5025282;28;20057;-61
2023/11/23 06:59:44;;;;;;;13.85;4.95;;;;;;;;;;5019468;28;20129;-58
2023/11/23 07:02:10;;;;;;;12.32;4.72;;;;;;;;;;5011939;28;20342;-58
2023/11/23 07:04:38;;;;;;;10.98;4.43;;;;;;;;;;5015340;28;20057;-60
2023/11/23 07:07:06;;;;;;;16.63;4.80;;;;;;;;;;5021119;28;20060;-61
2023/11/23 07:09:33;;;;;;;11.97;4.43;;;;;;;;;;5030859;28;20054;-59
2023/11/23 07:11:59;;;;;;;15.82;4.95;;;;;;;;;;5017285;28;20053;-62
2023/11/23 07:14:26;;;;;;;11.20;3.80;;;;;;;;;;5018564;28;20139;-63
2023/11/23 07:16:56;;;;;;;10.52;3.97;;;;;;;;;;5020513;28;20049;-63
2023/11/23 07:19:23;;;;;;;13.60;4.47;;;;;;;;;;5023094;28;20057;-58
2023/11/23 07:21:50;;;;;;;10.45;4.32;;;;;;;;;;5018085;28;20126;-59
2023/11/23 07:24:17;;;;;;;9.90;4.00;;;;;;;;;;5020525;28;20061;-63
2023/11/23 07:26:44;;;;;;;11.88;4.60;;;;;;;;;;5050935;28;20275;-60
2023/11/23 07:29:11;;;;;;;11.77;4.55;;;;;;;;;;5041694;28;20072;-56
2023/11/23 07:31:38;;;;;;;15.80;4.45;;;;;;;;;;5043379;28;20068;-59
2023/11/23 07:34:08;;;;;;;13.32;5.80;;;;;;;;;;5029975;28;20076;-62
2023/11/23 07:36:35;;;;;;;24.77;10.18;;;;;;;;;;5038156;28;20082;-56
2023/11/23 07:39:02;;;;;;;14.93;5.65;;;;;;;;;;5042742;28;20055;-63
2023/11/23 07:41:29;;;;;;;19.33;5.57;;;;;;;;;;5043334;28;20049;-54
2023/11/23 07:43:57;;;;;;;13.57;4.90;;;;;;;;;;5025125;28;20138;-63
2023/11/23 07:46:25;;;;;;;11.93;4.13;;;;;;;;;;5019960;28;20087;-58
2023/11/23 07:48:53;;;;;;;11.18;5.22;;;;;;;;;;5023074;28;20144;-57
2023/11/23 07:51:21;;;;;;;15.93;5.03;;;;;;;;;;5021958;28;20065;-60
2023/11/23 07:53:48;;;;;;;13.07;4.45;;;;;;;;;;5021475;28;20061;-61
2023/11/23 07:56:16;;;;;;;9.07;3.40;;;;;;;;;;5037976;28;20049;-60
2023/11/23 07:58:43;;;;;;;;;;;;;;;;;;5044338;28;20067;-61
2023/11/23 08:01:12;;;;;;;12.45;4.22;;;;;;;;;;5037848;28;19978;-57
2023/11/23 08:03:39;;;;;;;9.32;4.15;;;;;;;;;;5010684;28;20080;-65
2023/11/23 08:06:07;;;;;;;8.63;3.60;;;;;;;;;;5017097;28;20060;-64
2023/11/23 08:08:35;;;;;;;10.07;4.30;;;;;;;;;;5056679;28;20077;-63
2023/11/23 08:11:02;;;;;;;8.50;4.25;;;;;;;;;;5038919;28;20049;-60
2023/11/23 08:13:29;;;;;;;15.48;4.60;;;;;;;;;;5053368;28;20111;-56
2023/11/23 08:16:01;;;;;;;12.82;3.50;;;;;;;;;;4980245;28;20105;-61
2023/11/23 08:18:28;;;;;;;21.80;4.70;;;;;;;;;;5018823;28;20160;-62
2023/11/23 08:20:55;;;;;;;16.83;4.20;;;;;;;;;;5018186;28;20065;-66
2023/11/23 08:23:21;;;;;;;8.85;3.83;;;;;;;;;;5019012;28;20049;-61
2023/11/23 08:25:50;;;;;;;11.40;4.50;;;;;;;;;;5031367;28;20171;-59
2023/11/23 08:28:17;;;;;;;9.52;3.63;;;;;;;;;;5026223;28;20063;-62
2023/11/23 08:30:44;;;;;;;14.18;4.90;;;;;;;;;;5040486;28;20125;-62
2023/11/23 08:33:11;;;;;;;11.13;4.55;;;;;;;;;;5041215;28;20069;-64
2023/11/23 08:35:37;;;;;;;13.32;3.65;;;;;;;;;;5007918;28;20134;-61
2023/11/23 08:38:05;;;;;;;15.05;3.95;;;;;;;;;;5012407;28;20084;-61
2023/11/23 08:40:31;;;;;;;13.55;5.45;;;;;;;;;;5020860;28;20053;-62
2023/11/23 08:43:01;;;;;;;11.90;4.68;;;;;;;;;;5018568;28;20057;-62
2023/11/23 08:45:28;;;;;;;9.23;4.20;;;;;;;;;;4950919;28;20061;-62
2023/11/23 08:47:55;;;;;;;10.00;4.18;;;;;;;;;;5031242;28;20053;-57
2023/11/23 08:50:24;;;;;;;14.00;4.68;;;;;;;;;;5033930;28;20156;-60
2023/11/23 08:52:57;;;;;;;13.98;4.10;;;;;;;;;;5041757;28;20045;-60
2023/11/23 08:55:27;;;;;;;10.32;4.57;;;;;;;;;;5017151;28;20053;-60
2023/11/23 08:57:53;;;;;;;14.13;4.22;;;;;;;;;;5018624;28;20076;-59
2023/11/23 09:00:23;;;;;;;10.68;4.65;;;;;;;;;;5012001;28;20111;-62
2023/11/23 09:02:53;;;;;;;8.40;4.05;;;;;;;;;;5024970;28;20088;-64
2023/11/23 09:05:20;;;;;;;9.27;3.95;;;;;;;;;;4988607;28;20076;-63
2023/11/23 09:07:48;;;;;;;13.30;4.57;;;;;;;;;;5024648;28;20112;-62
2023/11/23 09:10:16;;;;;;;13.45;4.43;;;;;;;;;;5011878;28;20152;-61
2023/11/23 09:12:42;;;;;;;17.13;5.95;;;;;;;;;;5019830;28;20057;-65
2023/11/23 09:15:13;;;;;;;12.93;4.80;;;;;;;;;;5016198;28;20049;-59
2023/11/23 09:17:41;;;;;;;11.30;5.00;;;;;;;;;;5037439;28;20053;-62
2023/11/23 09:20:09;;;;;;;13.52;4.80;;;;;;;;;;5034295;28;20045;-62
2023/11/23 09:22:36;;;;;;;10.68;4.55;;;;;;;;;;5039288;28;20068;-59
2023/11/23 09:25:04;;;;;;;9.18;4.32;;;;;;;;;;5014796;28;20175;-61
2023/11/23 09:27:35;;;;;;;10.68;4.03;;;;;;;;;;5040081;28;20054;-62
2023/11/23 09:30:03;;;;;;;12.35;4.90;;;;;;;;;;5029787;28;20061;-63
2023/11/23 09:32:31;;;;;;;16.08;4.40;;;;;;;;;;5052555;28;20134;-61
2023/11/23 09:34:59;;;;;;;10.05;4.15;;;;;;;;;;5013243;28;20068;-58
2023/11/23 09:37:26;;;;;;;14.57;4.32;;;;;;;;;;5016725;28;20095;-61
2023/11/23 09:39:53;;;;;;;12.27;3.83;;;;;;;;;;5015821;28;20053;-64
2023/11/23 09:42:21;;;;;;;12.27;4.20;;;;;;;;;;5014224;28;20060;-59
2023/11/23 09:44:54;;;;;;;9.43;4.68;;;;;;;;;;5009403;28;20049;-62
2023/11/23 09:47:22;;;;;;;15.70;4.57;;;;;;;;;;5019402;28;20053;-64
2023/11/23 09:49:51;;;;;;;10.32;4.13;;;;;;;;;;5032140;28;20152;-60
2023/11/23 09:52:19;;;;;;;11.10;4.05;;;;;;;;;;5011092;28;20060;-57
2023/11/23 09:54:46;;;;;;;11.48;3.78;;;;;;;;;;4999953;28;20056;-60
2023/11/23 09:57:16;;;;;;;8.48;3.65;;;;;;;;;;5018420;28;20065;-61
2023/11/23 09:59:42;;;;;;;10.52;3.88;;;;;;;;;;5015827;28;20156;-64
2023/11/23 10:02:10;;;;;;;11.93;3.85;;;;;;;;;;5011447;28;20105;-60
2023/11/23 10:04:37;;;;;;;9.27;3.72;;;;;;;;;;5012982;28;20049;-59
2023/11/23 10:07:05;;;;;;;11.27;3.50;;;;;;;;;;5015436;28;20761;-64
2023/11/23 10:09:35;;;;;;;9.35;3.00;;;;;;;;;;5018489;28;20085;-61
2023/11/23 10:12:03;;;;;;;9.27;3.10;;;;;;;;;;5011514;28;20145;-63
2023/11/23 10:14:30;;;;;;;11.47;3.13;;;;;;;;;;5014076;28;20087;-63
2023/11/23 10:16:56;;;;;;;8.38;3.03;;;;;;;;;;5017501;28;20311;-57
2023/11/23 10:19:24;;;;;;;15.57;3.47;;;;;;;;;;5016993;28;20094;-60
2023/11/23 10:21:58;;;;;;;7.93;2.58;;;;;;;;;;5016536;28;20058;-60
2023/11/23 10:24:25;;;;;;;9.90;2.72;;;;;;;;;;5007932;28;20053;-60
2023/11/23 10:26:53;;;;;;;9.98;2.50;;;;;;;;;;5035043;28;20065;-61
2023/11/23 10:29:23;;;;;;;5.38;2.20;;;;;;;;;;5021004;28;20057;-61
2023/11/23 10:31:51;;;;;;;5.93;2.10;;;;;;;;;;5031588;28;20072;-63
2023/11/23 10:34:19;;;;;;;6.53;2.75;;;;;;;;;;4989970;28;20045;-62
2023/11/23 10:36:48;;;;;;;8.10;2.17;;;;;;;;;;4998698;28;20058;-63
2023/11/23 10:39:18;;;;;;;6.25;3.03;;;;;;;;;;5017504;28;20167;-57
2023/11/23 10:41:46;;;;;;;21.42;6.70;;;;;;;;;;5014638;28;20117;-63
2023/11/23 10:44:14;;;;;;;11.75;2.72;;;;;;;;;;4987419;28;20121;-52
2023/11/23 10:46:42;;;;;;;13.27;2.80;;;;;;;;;;5015741;28;20096;-62
2023/11/23 10:49:09;;;;;;;15.68;3.00;;;;;;;;;;5017614;28;20112;-59
2023/11/23 10:51:36;;;;;;;8.75;2.80;;;;;;;;;;5015262;28;20056;-65
2023/11/23 10:54:05;;;;;;;7.28;2.67;;;;;;;;;;4998198;28;20114;-59
2023/11/23 10:56:32;;;;;;;14.52;3.08;;;;;;;;;;5045016;28;20053;-59
2023/11/23 10:59:02;;;;;;;8.65;2.58;;;;;;;;;;5015953;28;20053;-57
2023/11/23 11:01:32;;;;;;;6.22;2.50;;;;;;;;;;5008269;28;20077;-60
2023/11/23 11:03:59;;;;;;;9.95;2.75;;;;;;;;;;4998287;28;20133;-60
2023/11/23 11:06:26;;;;;;;9.10;2.60;;;;;;;;;;5023727;28;20081;-59
2023/11/23 11:08:53;;;;;;;17.55;3.40;;;;;;;;;;5017939;28;20079;-60
2023/11/23 11:11:21;;;;;;;4.88;2.10;;;;;;;;;;5021453;28;20059;-61
2023/11/23 11:13:48;;;;;;;8.60;2.03;;;;;;;;;;4995867;28;20085;-60
2023/11/23 11:16:17;;;;;;;13.60;2.30;;;;;;;;;;4997480;28;20128;-59
2023/11/23 11:18:52;;;;;;;9.52;2.15;;;;;;;;;;5052670;28;20072;-62
2023/11/23 11:21:20;;;;;;;9.48;2.47;;;;;;;;;;5039108;28;20065;-59
2023/11/23 11:23:49;;;;;;;5.25;1.90;;;;;;;;;;5032719;28;20076;-60
2023/11/23 11:26:20;;;;;;;7.15;2.20;;;;;;;;;;5006202;28;20360;-60
2023/11/23 11:28:55;;;;;;;6.43;2.10;;;;;;;;;;5014535;28;20208;-58
2023/11/23 11:31:29;;;;;;;6.35;1.85;;;;;;;;;;5009964;28;20311;-62
2023/11/23 11:33:57;;;;;;;4.78;1.83;;;;;;;;;;5010643;28;20057;-60
2023/11/23 11:36:27;;;;;;;12.05;1.95;;;;;;;;;;5027296;28;20045;-61
2023/11/23 11:38:56;;;;;;;6.38;1.83;;;;;;;;;;5031109;28;20061;-61
2023/11/23 11:41:25;;;;;;;8.73;2.33;;;;;;;;;;5012746;28;20057;-58
2023/11/23 11:43:52;;;;;;;7.75;2.30;;;;;;;;;;5008436;28;20062;-55
2023/11/23 11:46:19;;;;;;;10.98;2.25;;;;;;;;;;4977605;28;21917;-61
2023/11/23 11:48:46;;;;;;;8.35;1.90;;;;;;;;;;5014232;28;20057;-60
2023/11/23 11:51:15;;;;;;;7.30;1.92;;;;;;;;;;5016167;28;20062;-61
2023/11/23 11:53:43;;;;;;;19.65;3.63;;;;;;;;;;5015422;28;20135;-60
2023/11/23 11:56:11;;;;;;;5.07;2.15;;;;;;;;;;5005165;28;20263;-60
2023/11/23 11:58:39;;;;;;;11.23;2.35;;;;;;;;;;5015998;28;20061;-63
2023/11/23 12:01:06;;;;;;;10.13;2.00;;;;;;;;;;5031625;28;20057;-64
2023/11/23 12:03:33;;;;;;;6.50;1.70;;;;;;;;;;5015024;28;20136;-61
2023/11/23 12:06:03;;;;;;;8.75;1.67;;;;;;;;;;5005714;28;20122;-60
2023/11/23 12:08:34;;;;;;;5.03;1.60;;;;;;;;;;5009598;28;20046;-58
2023/11/23 12:11:02;;;;;;;12.50;1.58;;;;;;;;;;5017462;28;20069;-60
2023/11/23 12:13:32;;;;;;;3.72;1.50;;;;;;;;;;5016060;28;20056;-64
2023/11/23 12:16:01;;;;;;;7.72;1.95;;;;;;;;;;5022630;28;20057;-59
2023/11/23 12:18:32;;;;;;;9.00;2.55;;;;;;;;;;5017159;28;20049;-59
2023/11/23 12:21:00;;;;;;;3.55;1.58;;;;;;;;;;5026953;28;20049;-62
2023/11/23 12:23:27;;;;;;;12.85;1.48;;;;;;;;;;5022001;28;20061;-61
2023/11/23 12:25:56;;;;;;;7.00;1.60;;;;;;;;;;5001862;28;20144;-64
2023/11/23 12:28:32;;;;;;;3.58;1.35;;;;;;;;;;5019451;28;20045;-61
2023/11/23 12:30:58;;;;;;;3.85;1.35;;;;;;;;;;5019229;28;20412;-61
2023/11/23 12:33:25;;;;;;;5.10;1.38;;;;;;;;;;5019530;28;20148;-63
2023/11/23 12:35:54;;;;;;;4.38;1.50;;;;;;;;;;5013408;28;20128;-58
2023/11/23 12:38:20;;;;;;;6.57;1.38;;;;;;;;;;5020425;28;20155;-56
2023/11/23 12:40:48;;;;;;;8.43;1.55;;;;;;;;;;5024178;28;20128;-61
2023/11/23 12:43:17;;;;;;;10.57;1.65;;;;;;;;;;5010939;28;20050;-59
2023/11/23 12:45:44;;;;;;;;;;;;;;;;;;5001925;28;20057;-62
2023/11/23 12:48:13;;;;;;;10.10;1.67;;;;;;;;;;5030009;28;20018;-62
2023/11/23 12:50:39;;;;;;;5.15;1.10;;;;;;;;;;5037827;28;20084;-59
2023/11/23 12:53:06;;;;;;;6.78;1.33;;;;;;;;;;5038413;28;20045;-61
2023/11/23 12:55:33;;;;;;;10.75;1.92;;;;;;;;;;5010588;28;20141;-61
2023/11/23 12:58:00;;;;;;;5.68;1.83;;;;;;;;;;5044806;28;20071;-62
2023/11/23 13:00:35;;;;;;;5.82;1.20;;;;;;;;;;5056858;28;20049;-62
2023/11/23 13:03:04;;;;;;;7.35;1.17;;;;;;;;;;5041565;28;20060;-59
2023/11/23 13:05:30;;;;;;;;;;;;;;;;;;5013369;28;20059;-60
2023/11/23 13:07:57;;;;;;;5.97;1.35;;;;;;;;;;5038703;28;20027;-61
2023/11/23 13:10:24;;;;;;;9.50;1.45;;;;;;;;;;5033036;28;20045;-57
2023/11/23 13:12:54;;;;;;;5.22;1.27;;;;;;;;;;5041119;28;20183;-60
2023/11/23 13:15:21;;;;;;;7.90;1.58;;;;;;;;;;5036120;28;20045;-61
2023/11/23 13:17:53;;;;;;;7.53;1.15;;;;;;;;;;5041227;28;20166;-56
2023/11/23 13:20:20;;;;;;;4.20;1.20;;;;;;;;;;5037274;28;20083;-62
2023/11/23 13:22:50;;;;;;;2.92;1.05;;;;;;;;;;5056025;28;20087;-64
2023/11/23 13:25:20;;;;;;;10.48;1.80;;;;;;;;;;5019114;28;20075;-62
2023/11/23 13:27:48;;;;;;;13.40;1.98;;;;;;;;;;5044676;28;20065;-61
2023/11/23 13:30:18;;;;;;;4.43;1.60;;;;;;;;;;5033103;28;20052;-64
2023/11/23 13:32:46;;;;;;;5.97;1.38;;;;;;;;;;5041807;28;20084;-57
2023/11/23 13:35:14;;;;;;;7.95;2.38;;;;;;;;;;5051335;28;20056;-63
2023/11/23 13:37:41;;;;;;;16.05;3.38;;;;;;;;;;5042227;28;20060;-64
2023/11/23 13:40:10;;;;;;;6.53;1.67;;;;;;;;;;5049005;28;20060;-63
2023/11/23 13:42:36;;;;;;;10.40;1.60;;;;;;;;;;5033510;28;20208;-58
2023/11/23 13:45:07;;;;;;;5.28;1.42;;;;;;;;;;5038376;28;20063;-61
2023/11/23 13:47:34;;;;;;;4.35;1.42;;;;;;;;;;5038719;28;20077;-59
2023/11/23 13:50:07;;;;;;;8.57;1.75;;;;;;;;;;5029507;28;20059;-59
2023/11/23 13:52:35;;;;;;;5.55;1.23;;;;;;;;;;5054184;28;20451;-54
2023/11/23 13:55:03;;;;;;;9.15;1.70;;;;;;;;;;5028866;28;20092;-61
2023/11/23 13:57:30;;;;;;;7.73;1.57;;;;;;;;;;5038066;28;20114;-64
2023/11/23 13:59:59;;;;;;;6.70;1.40;;;;;;;;;;5050762;28;20065;-64
2023/11/23 14:02:26;;;;;;;6.93;1.50;;;;;;;;;;5033257;28;20060;-58
2023/11/23 14:04:53;;;;;;;4.32;1.30;;;;;;;;;;5032909;28;20049;-57
2023/11/23 14:07:19;;;;;;;6.65;1.70;;;;;;;;;;5053984;28;20144;-60
2023/11/23 14:09:47;;;;;;;4.88;1.65;;;;;;;;;;5042155;28;20064;-65
2023/11/23 14:12:14;;;;;;;5.57;1.55;;;;;;;;;;5036548;28;20068;-62
2023/11/23 14:14:41;;;;;;;11.32;1.67;;;;;;;;;;5017649;28;20044;-61
2023/11/23 14:17:08;;;;;;;6.88;1.35;;;;;;;;;;5038494;28;20049;-63
2023/11/23 14:19:35;;;;;;;6.88;1.70;;;;;;;;;;5037540;28;20060;-63
2023/11/23 14:22:02;;;;;;;4.88;1.33;;;;;;;;;;5034354;28;20061;-62
2023/11/23 14:24:29;;;;;;;7.15;1.30;;;;;;;;;;5011961;28;20060;-63
2023/11/23 14:27:00;;;;;;;10.35;1.60;;;;;;;;;;5040456;28;20037;-55
2023/11/23 14:29:27;;;;;;;;;;;;;;;;;;5035980;28;20218;-61
2023/11/23 14:31:54;;;;;;;6.20;1.38;;;;;;;;;;5049063;28;19929;-58
2023/11/23 14:34:23;;;;;;;9.35;2.03;;;;;;;;;;5031352;28;20057;-58
2023/11/23 14:36:52;;;;;;;9.07;1.73;;;;;;;;;;5053761;28;20135;-63
2023/11/23 14:39:23;;;;;;;4.38;1.08;;;;;;;;;;5040518;28;20069;-58